Pireps
You are here: Olympic Virtual Pireps

Flight OLY10052

  • Submitted By: Stavros Sarikas
  • Departure Airport: Copenhagen Kastrup Airport (EKCH)
  • Arrival Airport: ARLANDA (ESSA)
  • Aircraft: A320-200 (SX-OAH)
  • Flight Time: 01.15
  • Date Submitted: 12/09/2017
  • Route: KEMAX N851 PELUP Z226 NILUG
  • Status: Accepted
Flight Details
Gross Revenue:
(138 load / € 74.00 per unit
€ 10, 212.00
Fuel Cost:
(16017 fuel used @ 0.19 / unit)
€ 3, 043.23

Additional Log Information:

View Log

Aircraft Used in flight is Airbus A320 British Airways G-EUUU
16:52 Boarding
16:52 Beacon Lights ON at 30 Feet
16:52 Brakes are On
16:52 Navigation Lights ON at 30 Feet
16:57 Engine 2 Started
16:58 Engine 1 Started
16:59 Brakes are Released
16:59 Pushing back
16:59 Flaps 3 Selected at 30ft and 0kts
17:00 Taxi Lights ON at 30 Feet
17:01 Landing Lights ON at 30 AGL
17:01 Strobe Lights ON at 30 Feet
17:03 You Took off @ 136 Knots and Flaps at Position 3 With a heading of 42 Degrees
Departure Weather EKCH 121350Z 21012KT 9999 SCT025CB SCT070 18/13 Q0999 TEMPO SHRA
Departure Coordinates 55.624557512181/ 12.666049692813
Takeoff Weight=60667KG Fuel Weight=5822KG
17:03 TOC Reached
17:04 Landing Gear Up @ 141 Knots and 90 Feet
17:04 Taxi Lights OFF at 90 Feet
17:04 Flaps 2 Selected at 1190ft and 148kts
17:05 Flaps 0 Selected at 1400ft and 186kts
17:07 Landing Lights OFF at 10030 AGL
17:48 Below 10000 feet you are not allowed to go over 250 knots
17:49 Below FL100 you need to turn on the landing lights
17:49 Landing Lights ON at 9410 AGL
17:58 You exceeded maximum bank angle
18:01 Flaps 1 Selected at 3010ft and 195kts
18:03 Flaps 3 Selected at 2090ft and 178kts
18:03 Landing Gear Down @ 176 Knots and 2050 Feet
18:03 Flaps 4 Selected at 1990ft and 162kts
18:03 Taxi Lights ON at 1970 Feet
18:03 Flaps 5 Selected at 1930ft and 154kts
18:06 You Landed @ 131 Knots with -283 Vertical Speed With a heading of 190 and with 2.1504 G Force
Arrival Weather: ESSA 121450Z 18011KT 9999 SCT034 18/11 Q0997 NOSIG
Arrival Coordinates 59.6643696734651/ 17.9231654498989
Landing Weight=57924KG Fuel Weight=3079KG
18:06 Airplane Bounced
18:06 Taxiing to gate
18:06 Paused
18:06 Landing Lights OFF at 150 AGL
18:06 Strobe Lights OFF at 150 Feet
18:06 Flaps 0 Selected at 150ft and 38kts
18:07 Brakes are On
18:07 Unpaused
Pirep logged with OA Virtual Tracking 1.0.2.4

Route Map